Terminal Aerodrome Forecast
Issued by NWS Portland, OR

Home | Current Version | Previous Version | Text Only | Print | Product List | Glossary On
Versions: 1 2 3 4 5 6 7 8 9 10 11 12 13 14 15 16 17 18 19 20 21 22 23 24 25 26 27 28 29 30 31 32 33 34 35 36 37 38 39 40 41 42
000
FTUS46 KPQR 222327
TAFHIO
TAF
KHIO 222327Z 2300/2324 VRB03KT P6SM SCT015 BKN100
     FM230600 00000KT 4SM BR SCT005 BKN015 OVC080
     FM231200 00000KT 2SM -RADZ BR OVC005
     FM231800 16005KT 5SM BR VCSH BKN012
     FM232000 16005KT P6SM SCT015 BKN035=

USA.gov is the U.S. government's official web portal to all federal, state and local government web resources and services.